Time;durP1;ratioP1;P1;durP2;ratioP2;P2;SDS_P1;SDS_P2;PMS_P1;PMS_P2;Temp;Humidity;BMP_temperature;BMP_pressure;BME280_temperature;BME280_humidity;BME280_pressure;Samples;Min_cycle;Max_cycle;Signal;HPM_P1;HPM_P2
2022/06/23 00:02:02;;;;;;;4.50;2.85;;;;;;;14.00;70.63;100976.03;10430934;28;20136;-79
2022/06/23 00:07:13;;;;;;;6.78;3.10;;;;;;;14.00;70.26;100977.78;10417329;28;20052;-79
2022/06/23 00:12:32;;;;;;;4.20;2.90;;;;;;;13.90;70.42;100968.63;10442762;28;20396;-79
2022/06/23 00:17:33;;;;;;;4.40;3.22;;;;;;;13.87;71.71;100965.91;10479847;28;20396;-78
2022/06/23 00:22:34;;;;;;;5.17;2.70;;;;;;;13.83;71.19;100964.00;10479895;28;20047;-78
2022/06/23 00:27:38;;;;;;;6.55;3.30;;;;;;;13.78;71.68;100958.59;10417248;28;20037;-78
2022/06/23 00:32:39;;;;;;;7.10;3.80;;;;;;;13.71;72.54;100957.47;10443873;28;20041;-79
2022/06/23 00:37:47;;;;;;;4.72;2.88;;;;;;;13.66;71.88;100951.13;10465547;28;20084;-79
2022/06/23 00:43:02;;;;;;;6.50;3.88;;;;;;;13.62;72.69;100946.59;10463111;28;20514;-78
2022/06/23 00:48:08;;;;;;;4.72;3.00;;;;;;;13.59;72.57;100944.78;10463112;28;20040;-79
2022/06/23 00:53:11;;;;;;;6.38;3.30;;;;;;;13.57;72.70;100945.53;10442106;28;20369;-78
2022/06/23 00:58:15;;;;;;;11.00;3.47;;;;;;;13.59;72.80;100928.09;10463088;28;20386;-78
2022/06/23 01:03:27;;;;;;;6.78;3.08;;;;;;;13.56;72.47;100938.50;10444482;28;20071;-78
2022/06/23 01:08:28;;;;;;;6.63;3.13;;;;;;;13.54;71.89;100934.91;10449428;28;20044;-78
2022/06/23 01:13:48;;;;;;;7.50;4.57;;;;;;;13.44;72.28;100928.44;10446219;28;20084;-78
2022/06/23 01:18:52;;;;;;;7.85;3.47;;;;;;;13.26;73.06;100934.75;10439068;28;20037;-78
2022/06/23 01:23:55;;;;;;;5.50;3.17;;;;;;;13.14;73.59;100944.81;10456932;28;20044;-78
2022/06/23 01:29:04;;;;;;;4.40;3.70;;;;;;;13.05;74.46;100955.84;10465807;28;20056;-79
2022/06/23 01:34:12;;;;;;;6.97;3.95;;;;;;;13.05;74.22;100947.97;10463343;28;20051;-78
2022/06/23 01:39:18;;;;;;;4.43;2.53;;;;;;;13.01;74.03;100957.47;10450253;28;20041;-79
2022/06/23 01:44:41;;;;;;;6.53;2.95;;;;;;;13.10;74.10;100951.66;10444845;28;20041;-78
2022/06/23 01:49:42;;;;;;;5.68;3.35;;;;;;;13.35;73.09;100952.59;10423727;28;20507;-79
2022/06/23 01:54:43;;;;;;;6.03;3.50;;;;;;;13.56;72.58;100949.00;10457232;28;20044;-79
2022/06/23 02:00:08;;;;;;;5.47;2.67;;;;;;;13.72;71.01;100951.34;10442399;28;20048;-78
2022/06/23 02:05:34;;;;;;;6.70;4.00;;;;;;;13.76;71.02;100937.47;10468509;28;20408;-79
2022/06/23 02:10:35;;;;;;;5.13;3.40;;;;;;;13.71;71.93;100939.03;10452492;28;20064;-78
2022/06/23 02:15:44;;;;;;;6.57;3.22;;;;;;;13.78;71.31;100930.53;10459466;28;20576;-79
2022/06/23 02:21:05;;;;;;;10.38;3.63;;;;;;;13.82;72.51;100923.66;10408417;28;20558;-79
2022/06/23 02:26:08;;;;;;;6.22;3.55;;;;;;;13.86;72.68;100940.44;10475288;28;20144;-78
2022/06/23 02:31:16;;;;;;;5.15;3.13;;;;;;;13.92;72.66;100935.38;10471483;28;20047;-79
2022/06/23 02:36:42;;;;;;;6.78;3.25;;;;;;;13.92;71.52;100932.75;10469139;28;20044;-79
2022/06/23 02:41:49;;;;;;;4.95;2.70;;;;;;;13.98;71.01;100945.25;10436120;28;20392;-79
2022/06/23 02:47:08;;;;;;;8.13;4.03;;;;;;;14.02;71.21;100926.09;10449419;28;20037;-78
2022/06/23 02:52:16;;;;;;;6.38;4.25;;;;;;;14.05;71.28;100934.09;10479933;28;20362;-79
2022/06/23 02:57:22;;;;;;;4.95;3.72;;;;;;;14.02;74.22;100934.00;10473777;28;20036;-78
2022/06/23 03:02:25;;;;;;;9.85;3.22;;;;;;;13.86;75.34;100929.91;10483737;28;20041;-79
2022/06/23 03:07:27;;;;;;;5.75;3.40;;;;;;;13.60;75.13;100917.63;10475412;28;20579;-79
2022/06/23 03:12:34;;;;;;;4.55;3.25;;;;;;;13.51;75.48;100931.31;10480333;28;20044;-79
2022/06/23 03:17:37;;;;;;;3.92;2.75;;;;;;;13.51;76.57;100933.09;10475741;28;20053;-79
2022/06/23 03:22:47;;;;;;;7.97;3.53;;;;;;;13.44;75.15;100929.31;10462718;28;20063;-79
2022/06/23 03:28:10;;;;;;;8.32;3.75;;;;;;;13.38;76.12;100946.56;10474709;28;20106;-79
2022/06/23 03:33:39;;;;;;;8.73;4.43;;;;;;;13.28;76.21;100937.44;10475477;28;20041;-79
2022/06/23 03:45:01;;;;;;;5.20;3.13;;;;;;;13.15;75.40;100936.09;10442521;28;20048;-79
2022/06/23 03:50:09;;;;;;;5.75;3.35;;;;;;;13.11;74.97;100935.06;10483101;28;20051;-79
2022/06/23 03:55:30;;;;;;;6.57;3.72;;;;;;;13.12;75.83;100926.34;10509008;28;20047;-79
2022/06/23 04:00:38;;;;;;;7.70;4.70;;;;;;;13.10;77.02;100922.75;10526541;28;20686;-79
2022/06/23 04:05:54;;;;;;;8.07;4.53;;;;;;;13.13;77.45;100927.25;10484168;28;20503;-79
2022/06/23 04:10:56;;;;;;;7.75;3.00;;;;;;;13.15;77.20;100930.84;10506223;28;20044;-79
2022/06/23 04:16:04;;;;;;;7.88;4.32;;;;;;;13.22;76.90;100940.75;10490574;28;20068;-79
2022/06/23 04:21:16;;;;;;;6.07;4.22;;;;;;;13.39;78.00;100940.47;10447747;28;20037;-78
2022/06/23 04:26:25;;;;;;;8.00;3.38;;;;;;;13.75;77.61;100934.81;10501380;28;20048;-78
2022/06/23 04:31:29;;;;;;;4.93;3.17;;;;;;;14.17;75.75;100928.34;10528925;28;20079;-78
2022/06/23 04:36:32;;;;;;;5.20;3.78;;;;;;;14.62;73.90;100927.19;10498023;28;20037;-78
2022/06/23 04:41:53;;;;;;;;;;;;;;;14.92;74.42;100924.63;10501467;28;20047;-77
2022/06/23 04:47:05;;;;;;;5.80;3.05;;;;;;;15.35;74.50;100919.78;10467195;28;19920;-76
2022/06/23 04:52:15;;;;;;;4.82;2.92;;;;;;;15.56;72.29;100921.22;10450948;28;20436;-77
2022/06/23 04:57:42;;;;;;;9.55;3.80;;;;;;;15.86;71.30;100926.44;10411599;28;20120;-77
2022/06/23 05:02:51;;;;;;;5.38;3.80;;;;;;;16.41;69.92;100923.47;10453894;28;20048;-77
2022/06/23 05:08:06;;;;;;;5.07;3.35;;;;;;;17.06;67.87;100915.28;10501410;28;20508;-76
2022/06/23 05:13:09;;;;;;;5.13;3.25;;;;;;;17.73;66.11;100922.81;10464173;28;20033;-76
2022/06/23 05:18:20;;;;;;;6.53;2.92;;;;;;;18.40;64.93;100914.31;10500662;28;20040;-76
2022/06/23 05:23:24;;;;;;;5.67;3.17;;;;;;;19.35;62.34;100923.63;10482583;28;20131;-78
2022/06/23 05:28:32;;;;;;;7.55;3.55;;;;;;;20.31;58.97;100929.97;10458116;28;20049;-78
2022/06/23 05:33:34;;;;;;;6.13;3.08;;;;;;;20.87;58.97;100933.06;10454181;28;20378;-78
2022/06/23 05:38:47;;;;;;;5.90;3.17;;;;;;;21.80;55.88;100920.16;10452309;28;20094;-79
2022/06/23 05:43:47;;;;;;;7.18;3.72;;;;;;;22.57;53.78;100921.09;10449893;28;20056;-79
2022/06/23 05:49:01;;;;;;;5.43;3.33;;;;;;;23.51;51.32;100913.69;10494726;28;20049;-80
2022/06/23 05:54:05;;;;;;;7.45;3.88;;;;;;;24.18;50.17;100931.13;10444790;28;20440;-79
2022/06/23 05:59:19;;;;;;;8.00;4.40;;;;;;;23.62;50.21;100919.88;10453220;28;20374;-77
2022/06/23 06:04:29;;;;;;;7.05;2.95;;;;;;;23.25;52.36;100926.28;10517021;28;20479;-77
2022/06/23 06:09:39;;;;;;;5.38;3.05;;;;;;;25.00;49.99;100923.22;10492051;28;20434;-80
2022/06/23 06:14:49;;;;;;;5.55;3.03;;;;;;;25.89;48.15;100917.63;10465667;28;20041;-77
2022/06/23 06:19:51;;;;;;;7.70;4.93;;;;;;;26.58;46.06;100912.91;10466582;28;20040;-79
2022/06/23 06:24:51;;;;;;;7.25;3.33;;;;;;;27.47;44.14;100914.75;10458447;28;20033;-79
2022/06/23 06:29:52;;;;;;;;;;;;;;;28.48;40.99;100903.44;10488280;28;20044;-80
2022/06/23 06:34:56;;;;;;;8.70;5.73;;;;;;;28.62;41.56;100906.63;10521770;28;19924;-80
2022/06/23 06:39:58;;;;;;;7.20;4.20;;;;;;;28.20;44.42;100917.59;10503915;28;20503;-79
2022/06/23 06:44:59;;;;;;;24.10;15.95;;;;;;;28.77;40.68;100918.84;10518065;28;20032;-79
2022/06/23 06:50:21;;;;;;;7.78;4.32;;;;;;;29.86;39.63;100918.34;10445200;28;20040;-79
2022/06/23 06:55:38;;;;;;;6.88;4.38;;;;;;;30.32;39.54;100908.75;10464461;28;20044;-81
2022/06/23 07:00:43;;;;;;;11.93;7.32;;;;;;;31.21;36.15;100911.00;10465014;28;20048;-77
2022/06/23 07:05:57;;;;;;;8.52;5.65;;;;;;;30.63;37.96;100906.78;10460131;28;20032;-77
2022/06/23 07:11:17;;;;;;;7.78;5.88;;;;;;;31.28;37.52;100909.81;10471877;28;20037;-77
2022/06/23 07:16:39;;;;;;;9.70;5.57;;;;;;;31.03;39.83;100910.72;10484276;28;20071;-77
2022/06/23 07:21:44;;;;;;;9.95;4.97;;;;;;;31.97;37.41;100901.72;10480775;28;20272;-77
2022/06/23 07:27:01;;;;;;;8.30;5.75;;;;;;;31.76;37.07;100905.28;10459960;28;20035;-78
2022/06/23 07:32:10;;;;;;;11.27;7.15;;;;;;;32.63;33.65;100904.34;10449621;28;20409;-77
2022/06/23 07:37:33;;;;;;;9.70;5.88;;;;;;;32.73;34.34;100895.81;10445501;28;20033;-76
2022/06/23 07:42:47;;;;;;;8.93;5.65;;;;;;;33.30;33.21;100886.91;10469695;28;20538;-79
2022/06/23 07:47:47;;;;;;;8.32;4.13;;;;;;;33.09;33.39;100897.81;10446950;28;20455;-78
2022/06/23 07:52:48;;;;;;;12.40;4.47;;;;;;;33.80;32.77;100904.38;10445735;28;20177;-77
2022/06/23 07:57:48;;;;;;;13.05;5.95;;;;;;;33.84;33.02;100906.00;10416233;28;20397;-77
2022/06/23 08:03:00;;;;;;;10.98;5.15;;;;;;;33.73;34.78;100913.78;10422565;28;20074;-78
2022/06/23 08:08:01;;;;;;;12.57;5.97;;;;;;;34.59;31.64;100896.84;10464234;28;20037;-77
2022/06/23 08:13:19;;;;;;;12.50;4.20;;;;;;;34.70;32.60;100892.59;10416267;28;20392;-77
2022/06/23 08:18:31;;;;;;;8.40;5.13;;;;;;;34.83;33.75;100892.78;10426313;28;20116;-77
2022/06/23 08:23:35;;;;;;;11.02;4.75;;;;;;;35.27;30.76;100894.06;10406636;28;20063;-77
2022/06/23 08:28:35;;;;;;;7.95;3.63;;;;;;;34.56;32.28;100895.19;10402600;28;20033;-77
2022/06/23 08:33:36;;;;;;;15.38;10.55;;;;;;;34.60;33.34;100890.44;10495995;28;20048;-77
2022/06/23 08:38:54;;;;;;;26.98;21.02;;;;;;;35.13;31.42;100881.22;10472743;28;20132;-77
2022/06/23 08:43:58;;;;;;;9.35;3.38;;;;;;;35.38;33.41;100882.56;10463242;28;20064;-77
2022/06/23 08:49:06;;;;;;;11.27;3.70;;;;;;;35.65;30.86;100892.84;10465462;28;20068;-77
2022/06/23 08:54:13;;;;;;;8.35;3.95;;;;;;;35.57;31.65;100889.69;10443013;28;20072;-76
2022/06/23 08:59:51;;;;;;;12.32;4.15;;;;;;;34.59;34.28;100880.53;10442992;28;20489;-76
2022/06/23 09:05:01;;;;;;;11.70;3.60;;;;;;;35.63;31.33;100875.72;10455352;28;20460;-76
2022/06/23 09:10:24;;;;;;;10.20;3.63;;;;;;;34.73;31.98;100877.09;10512683;28;20075;-77
2022/06/23 09:15:38;;;;;;;16.85;6.00;;;;;;;34.96;32.86;100887.56;10505922;28;20472;-76
2022/06/23 09:21:09;;;;;;;6.80;3.80;;;;;;;35.27;32.50;100885.00;10513008;28;20032;-77
2022/06/23 09:26:32;;;;;;;10.65;4.32;;;;;;;35.80;31.18;100885.66;10525460;28;20420;-77
2022/06/23 09:31:58;;;;;;;9.77;5.13;;;;;;;35.90;31.52;100876.94;10526306;28;20047;-76
2022/06/23 09:37:13;;;;;;;11.02;4.80;;;;;;;35.19;31.53;100880.00;10513690;28;20850;-78
2022/06/23 09:42:17;;;;;;;14.07;5.18;;;;;;;35.20;31.84;100870.91;10482003;28;20131;-75
2022/06/23 09:47:20;;;;;;;11.50;4.63;;;;;;;35.53;32.29;100871.78;10484666;28;20420;-76
2022/06/23 09:52:37;;;;;;;9.00;4.63;;;;;;;36.30;29.89;100867.25;10522753;28;20457;-76
2022/06/23 09:58:15;;;;;;;16.17;5.28;;;;;;;35.68;31.18;100860.00;10525226;28;20036;-77
2022/06/23 10:03:31;;;;;;;9.02;5.15;;;;;;;35.77;31.19;100861.34;10522741;28;20033;-76
2022/06/23 10:08:36;;;;;;;11.18;3.83;;;;;;;35.83;31.68;100860.06;10526411;28;20399;-77
2022/06/23 10:14:01;;;;;;;10.85;4.95;;;;;;;36.92;31.76;100856.25;10524473;28;20043;-76
2022/06/23 10:19:27;;;;;;;14.20;4.85;;;;;;;36.63;29.80;100858.97;10524683;28;20036;-80
2022/06/23 10:24:34;;;;;;;12.70;5.07;;;;;;;37.30;29.17;100861.97;10523413;28;20123;-77
2022/06/23 10:29:34;;;;;;;9.50;4.22;;;;;;;37.52;28.65;100856.97;10525540;28;20055;-77
2022/06/23 10:34:56;;;;;;;17.50;5.18;;;;;;;36.54;30.54;100852.25;10526047;28;20043;-77
2022/06/23 10:40:21;;;;;;;11.25;4.90;;;;;;;33.88;35.60;100850.59;10532947;28;20052;-77
2022/06/23 10:45:39;;;;;;;13.85;5.68;;;;;;;35.71;32.13;100838.06;10532712;28;20070;-77
2022/06/23 10:50:55;;;;;;;10.18;4.35;;;;;;;37.12;29.88;100831.31;10532959;28;20092;-77
2022/06/23 10:56:01;;;;;;;11.35;4.75;;;;;;;37.71;30.18;100829.31;10532700;28;20413;-76
2022/06/23 11:01:23;;;;;;;16.38;5.85;;;;;;;36.68;29.59;100829.56;10532384;28;20071;-77
2022/06/23 11:06:56;;;;;;;13.20;5.85;;;;;;;36.69;31.33;100825.88;10508011;28;20056;-76
2022/06/23 11:12:13;;;;;;;15.15;4.35;;;;;;;37.45;29.69;100830.06;10480102;28;20491;-77
2022/06/23 11:17:23;;;;;;;12.60;5.25;;;;;;;36.14;31.09;100828.31;10499456;28;20440;-76
2022/06/23 11:22:39;;;;;;;10.20;4.90;;;;;;;35.93;32.25;100817.72;10498708;28;20037;-77
2022/06/23 11:27:56;;;;;;;10.25;4.93;;;;;;;37.22;28.39;100831.59;10486359;28;20037;-77
2022/06/23 11:33:08;;;;;;;8.98;4.22;;;;;;;36.77;29.25;100825.41;10488437;28;20591;-78
2022/06/23 11:38:47;;;;;;;10.65;4.40;;;;;;;36.57;29.93;100811.19;10488086;28;20048;-77
2022/06/23 11:43:53;;;;;;;10.13;5.07;;;;;;;36.86;29.93;100803.84;10506226;28;20036;-77
2022/06/23 11:48:59;;;;;;;13.30;4.82;;;;;;;36.62;31.56;100805.44;10527012;28;20044;-78
2022/06/23 11:54:28;;;;;;;16.38;5.93;;;;;;;36.46;30.84;100806.38;10510253;28;20044;-79
2022/06/23 11:59:44;;;;;;;11.07;5.95;;;;;;;36.58;29.83;100797.44;10489384;28;20036;-76
2022/06/23 12:05:06;;;;;;;12.02;5.65;;;;;;;37.04;29.44;100800.94;10486945;28;20044;-76
2022/06/23 12:10:22;;;;;;;8.85;4.60;;;;;;;36.77;29.40;100788.09;10486771;28;20085;-78
2022/06/23 12:15:28;;;;;;;10.93;5.75;;;;;;;36.83;29.34;100787.69;10485053;28;20041;-78
2022/06/23 12:20:49;;;;;;;11.02;5.57;;;;;;;34.40;32.09;100783.69;10480739;28;20036;-77
2022/06/23 12:26:07;;;;;;;;;;;;;;;33.31;34.32;100789.19;10405781;28;20033;-77
2022/06/23 12:31:22;;;;;;;10.73;4.70;;;;;;;34.64;33.32;100769.75;10520642;28;19920;-76
2022/06/23 12:36:44;;;;;;;10.35;5.63;;;;;;;33.51;33.05;100779.22;10513046;28;20118;-77
2022/06/23 12:41:57;;;;;;;9.55;5.05;;;;;;;34.59;32.88;100747.41;10484148;28;20044;-77
2022/06/23 12:47:26;;;;;;;8.10;4.53;;;;;;;35.50;30.05;100765.84;10482235;28;20472;-76
2022/06/23 12:52:39;;;;;;;7.90;3.92;;;;;;;36.27;29.08;100747.59;10504459;28;20086;-76
2022/06/23 12:57:48;;;;;;;9.88;5.32;;;;;;;36.93;28.70;100746.19;10502128;28;20119;-75
2022/06/23 13:02:53;;;;;;;9.30;4.60;;;;;;;36.95;28.43;100741.50;10527817;28;20067;-76
2022/06/23 13:08:01;;;;;;;10.23;4.32;;;;;;;36.08;28.70;100734.28;10509379;28;20036;-75
2022/06/23 13:13:21;;;;;;;13.27;4.82;;;;;;;35.10;30.65;100731.84;10525576;28;20399;-75
2022/06/23 13:18:24;;;;;;;12.13;4.40;;;;;;;36.45;28.92;100715.59;10509408;28;20082;-76
2022/06/23 13:23:38;;;;;;;15.45;4.10;;;;;;;37.15;26.83;100716.56;10527179;28;20025;-76
2022/06/23 13:28:40;;;;;;;7.55;4.10;;;;;;;34.14;33.17;100711.81;10525830;28;20032;-76
2022/06/23 13:33:54;;;;;;;10.15;4.43;;;;;;;34.28;33.33;100709.22;10524593;28;20032;-76
2022/06/23 13:39:10;;;;;;;7.30;3.80;;;;;;;35.97;27.93;100701.34;10523323;28;20051;-75
2022/06/23 13:44:35;;;;;;;8.43;3.65;;;;;;;33.93;30.25;100695.72;10525004;28;20044;-76
2022/06/23 13:49:39;;;;;;;11.80;4.60;;;;;;;32.26;34.73;100702.00;10487586;28;20403;-76
2022/06/23 13:55:05;;;;;;;9.70;3.97;;;;;;;31.70;33.90;100694.50;10482238;28;20060;-76
2022/06/23 14:00:18;;;;;;;10.45;3.55;;;;;;;33.99;31.78;100686.34;10476016;28;20106;-75
2022/06/23 14:05:21;;;;;;;8.63;3.80;;;;;;;36.25;30.43;100680.59;10483038;28;20040;-76
2022/06/23 14:10:53;;;;;;;13.60;4.32;;;;;;;37.12;28.73;100669.53;10488179;28;20093;-75
2022/06/23 14:16:01;;;;;;;7.03;3.70;;;;;;;37.67;27.23;100653.06;10521070;28;20123;-75
2022/06/23 14:21:12;;;;;;;14.32;4.57;;;;;;;38.00;24.78;100652.53;10480771;28;20032;-76
2022/06/23 14:26:51;;;;;;;8.00;3.60;;;;;;;37.75;25.69;100647.94;10483347;28;20438;-76
2022/06/23 14:32:03;;;;;;;10.10;5.05;;;;;;;36.15;28.17;100642.16;10492550;28;20067;-76
2022/06/23 14:37:18;;;;;;;13.32;3.38;;;;;;;34.75;29.05;100644.16;10489482;28;20093;-76
2022/06/23 14:42:47;;;;;;;10.88;3.88;;;;;;;34.01;30.33;100633.75;10489580;28;20028;-76
2022/06/23 14:48:00;;;;;;;8.95;3.92;;;;;;;34.13;30.92;100628.59;10487644;28;20090;-75
2022/06/23 14:53:13;;;;;;;9.85;3.72;;;;;;;34.31;29.33;100627.56;10489868;28;20123;-76
2022/06/23 14:58:14;;;;;;;9.68;3.88;;;;;;;34.24;29.76;100624.31;10472553;28;20037;-74
2022/06/23 15:03:36;;;;;;;9.35;3.67;;;;;;;33.21;30.35;100619.78;10489998;28;20048;-75
2022/06/23 15:09:08;;;;;;;8.23;4.15;;;;;;;32.59;34.54;100615.63;10453165;28;20050;-74
2022/06/23 15:14:16;;;;;;;9.65;4.00;;;;;;;33.07;30.80;100601.56;10484693;28;20126;-74
2022/06/23 15:19:43;;;;;;;13.30;5.88;;;;;;;33.53;32.55;100596.47;10497599;28;20039;-74
2022/06/23 15:25:05;;;;;;;9.70;3.92;;;;;;;32.88;37.72;100596.16;10494123;28;20395;-74
2022/06/23 15:30:13;;;;;;;11.73;3.95;;;;;;;33.46;31.54;100599.56;10514246;28;20059;-74
2022/06/23 15:35:33;;;;;;;11.70;4.55;;;;;;;33.24;33.47;100595.25;10520230;28;20060;-73
2022/06/23 15:40:45;;;;;;;12.60;5.10;;;;;;;33.45;32.82;100587.84;10487984;28;20119;-74
2022/06/23 15:45:51;;;;;;;6.65;3.50;;;;;;;33.46;32.25;100594.16;10471936;28;20044;-74
2022/06/23 15:51:22;;;;;;;8.88;4.10;;;;;;;33.24;32.77;100578.97;10486355;28;20040;-74
2022/06/23 15:56:25;;;;;;;7.80;3.42;;;;;;;32.80;34.06;100573.03;10457352;28;20045;-74
2022/06/23 16:01:31;;;;;;;8.93;3.92;;;;;;;32.33;34.78;100573.53;10481543;28;20499;-74
2022/06/23 16:06:37;;;;;;;6.70;3.53;;;;;;;31.67;36.32;100569.34;10471917;28;20053;-74
2022/06/23 16:11:56;;;;;;;6.32;3.25;;;;;;;31.22;39.43;100574.03;10491934;28;20066;-74
2022/06/23 16:17:02;;;;;;;14.05;4.55;;;;;;;30.29;40.85;100573.28;10470985;28;20059;-74
2022/06/23 16:22:06;;;;;;;29.65;16.23;;;;;;;29.57;45.95;100578.63;10499991;28;20037;-75
2022/06/23 16:27:38;;;;;;;20.05;10.05;;;;;;;28.11;54.74;100577.09;10475979;28;20040;-76
2022/06/23 16:32:42;;;;;;;8.10;6.07;;;;;;;26.61;62.63;100592.66;10448364;28;20045;-77
2022/06/23 16:37:45;;;;;;;23.10;21.23;;;;;;;25.34;71.72;100596.06;10521054;28;20036;-75
2022/06/23 16:43:11;;;;;;;61.70;57.30;;;;;;;24.24;78.84;100608.44;10470829;28;20099;-73
2022/06/23 16:48:18;;;;;;;42.53;39.53;;;;;;;23.01;86.73;100625.66;10421969;28;20926;-75
2022/06/23 16:53:35;;;;;;;13.00;10.18;;;;;;;22.08;82.71;100618.16;10482389;28;20148;-75
2022/06/23 16:58:51;;;;;;;12.20;10.13;;;;;;;21.49;85.57;100621.84;10483572;28;20480;-76
2022/06/23 17:04:10;;;;;;;15.07;9.93;;;;;;;21.39;89.07;100612.97;10475565;28;20134;-74
2022/06/23 17:09:37;;;;;;;16.13;9.20;;;;;;;21.27;93.08;100642.28;10489153;28;20561;-76
2022/06/23 17:14:40;;;;;;;13.95;7.80;;;;;;;21.11;93.75;100660.88;10489442;28;20045;-76
2022/06/23 17:19:44;;;;;;;15.38;6.07;;;;;;;20.93;89.88;100660.88;10508635;28;20514;-77
2022/06/23 17:24:50;;;;;;;18.83;7.50;;;;;;;20.60;89.96;100647.50;10525583;28;20449;-76
2022/06/23 17:29:53;;;;;;;15.90;7.53;;;;;;;20.01;94.14;100626.00;10506030;28;20461;-76
2022/06/23 17:34:55;;;;;;;9.63;6.95;;;;;;;19.95;95.90;100610.91;10527361;28;20040;-76
2022/06/23 17:46:04;;;;;;;12.60;6.22;;;;;;;20.18;96.75;100630.50;10489056;28;20444;-75
2022/06/23 17:51:10;;;;;;;;;;;;;;;20.20;92.39;100599.53;10504395;28;20055;-76
2022/06/23 17:56:15;;;;;;;12.73;5.43;;;;;;;20.27;92.28;100619.00;10509065;28;20011;-76
2022/06/23 18:01:19;;;;;;;13.05;6.63;;;;;;;20.12;94.85;100697.78;10504953;28;20093;-78
2022/06/23 18:06:28;;;;;;;15.07;7.55;;;;;;;19.53;96.41;100771.66;10490025;28;20040;-77
2022/06/23 18:11:39;;;;;;;22.42;9.93;;;;;;;19.25;100.00;100791.75;10497769;28;20044;-75
2022/06/23 18:16:59;;;;;;;67.35;14.32;;;;;;;18.95;100.00;100713.59;10502034;28;20484;-75
2022/06/23 18:22:41;;;;;;;23.02;10.25;;;;;;;18.80;100.00;100640.97;10481334;28;20044;-76
2022/06/23 18:28:19;;;;;;;14.95;7.47;;;;;;;18.75;100.00;100619.69;10473660;28;20073;-77
2022/06/23 18:33:44;;;;;;;10.18;6.50;;;;;;;18.67;100.00;100623.16;10463014;28;20078;-76
2022/06/23 18:38:59;;;;;;;12.32;7.35;;;;;;;18.70;100.00;100639.97;10445824;28;20041;-76
2022/06/23 18:44:16;;;;;;;16.02;10.48;;;;;;;18.69;100.00;100622.28;10486574;28;20036;-77
2022/06/23 18:49:38;;;;;;;15.02;9.65;;;;;;;18.77;100.00;100620.59;10449459;28;20033;-77
2022/06/23 18:54:46;;;;;;;10.57;7.57;;;;;;;18.95;100.00;100612.81;10438807;28;20072;-77
2022/06/23 19:00:13;;;;;;;15.90;8.48;;;;;;;18.83;100.00;100617.13;10418819;28;20039;-79
2022/06/23 19:05:21;;;;;;;11.40;9.18;;;;;;;18.85;100.00;100609.19;10429355;28;20124;-80
2022/06/23 19:10:31;;;;;;;15.63;8.23;;;;;;;18.82;100.00;100598.53;10449920;28;20037;-79
2022/06/23 19:15:35;;;;;;;12.40;7.05;;;;;;;18.75;100.00;100601.13;10491131;28;20513;-77
2022/06/23 19:20:48;;;;;;;13.73;8.93;;;;;;;18.69;100.00;100609.03;10487687;28;20482;-78
2022/06/23 19:25:57;;;;;;;16.30;11.18;;;;;;;18.66;100.00;100624.03;10490737;28;20048;-78
2022/06/23 19:31:02;;;;;;;17.00;11.80;;;;;;;18.59;100.00;100634.56;10500158;28;20451;-79
2022/06/23 19:36:26;;;;;;;15.52;10.75;;;;;;;18.59;100.00;100639.88;10490246;28;20043;-78
2022/06/23 19:41:48;;;;;;;13.65;9.95;;;;;;;18.58;100.00;100637.19;10485306;28;20399;-79
2022/06/23 19:46:51;;;;;;;;;;;;;;;18.58;100.00;100629.22;10486850;28;20041;-79
2022/06/23 19:51:53;;;;;;;;;;;;;;;18.55;100.00;100621.25;10468822;28;19928;-79
2022/06/23 19:57:26;;;;;;;18.00;11.50;;;;;;;18.49;100.00;100612.38;10484986;27;20360;-79
2022/06/23 20:03:17;;;;;;;15.65;13.68;;;;;;;18.52;100.00;100610.63;10480785;28;20128;-79
2022/06/23 20:08:51;;;;;;;17.17;12.02;;;;;;;18.48;100.00;100607.06;10417387;28;20127;-80
2022/06/23 20:14:01;;;;;;;17.13;11.38;;;;;;;18.42;100.00;100607.88;10485357;28;20037;-80
2022/06/23 20:19:13;;;;;;;18.15;11.63;;;;;;;18.36;100.00;100597.19;10485347;28;20032;-82
2022/06/23 20:24:49;;;;;;;14.60;11.60;;;;;;;18.31;100.00;100598.91;10469673;28;20044;-78
2022/06/23 20:29:55;;;;;;;21.45;15.23;;;;;;;18.29;100.00;100598.91;10432333;28;20442;-80
2022/06/23 20:35:15;;;;;;;20.25;14.35;;;;;;;18.40;100.00;100603.44;10472670;28;20164;-77
2022/06/23 20:40:15;;;;;;;23.13;15.77;;;;;;;18.32;100.00;100629.81;10450338;28;20755;-77
2022/06/23 20:45:20;;;;;;;19.88;16.15;;;;;;;18.41;100.00;100677.63;10485291;28;20041;-77
2022/06/23 20:50:44;;;;;;;16.08;11.45;;;;;;;18.52;100.00;100693.66;10485652;28;20028;-79
2022/06/23 20:56:18;;;;;;;18.38;13.15;;;;;;;18.48;100.00;100660.94;10518990;28;20040;-76
2022/06/23 21:01:26;;;;;;;22.08;15.07;;;;;;;18.47;100.00;100624.69;10508875;28;20040;-76
2022/06/23 21:07:00;;;;;;;22.45;12.15;;;;;;;18.43;100.00;100622.03;10457536;28;20443;-78
2022/06/23 21:12:21;;;;;;;14.02;12.18;;;;;;;18.37;100.00;100670.50;10479950;28;20037;-78
2022/06/23 21:18:00;;;;;;;16.17;10.80;;;;;;;18.36;100.00;100626.34;10521613;28;20040;-77
2022/06/23 21:23:19;;;;;;;12.55;7.50;;;;;;;18.26;100.00;100582.97;10503206;28;20038;-77
2022/06/23 21:29:04;;;;;;;21.65;11.38;;;;;;;18.31;100.00;100577.72;10513344;28;20097;-75
2022/06/23 21:34:09;;;;;;;21.08;13.52;;;;;;;18.31;100.00;100583.00;10507156;28;20040;-76
2022/06/23 21:39:18;;;;;;;25.88;13.82;;;;;;;18.36;100.00;100546.88;10413404;28;20539;-77
2022/06/23 21:44:26;;;;;;;19.65;11.20;;;;;;;18.24;100.00;100520.25;10434667;28;20041;-77
2022/06/23 21:50:01;;;;;;;15.82;9.05;;;;;;;18.09;100.00;100529.81;10449633;28;20032;-77
2022/06/23 21:55:14;;;;;;;16.23;11.20;;;;;;;18.08;100.00;100537.75;10469785;28;20032;-76
2022/06/23 22:00:24;;;;;;;16.10;11.18;;;;;;;17.99;100.00;100504.06;10518589;28;20105;-76
2022/06/23 22:06:00;;;;;;;18.30;11.00;;;;;;;17.81;100.00;100471.22;10432129;28;20040;-76
2022/06/23 22:11:07;;;;;;;17.33;11.10;;;;;;;17.82;100.00;100462.41;10447300;28;20511;-77
2022/06/23 22:16:13;;;;;;;21.17;11.50;;;;;;;17.67;100.00;100447.25;10441049;28;20478;-77
2022/06/23 22:21:17;;;;;;;19.42;10.50;;;;;;;17.52;100.00;100445.28;10440055;28;20037;-78
2022/06/23 22:26:41;;;;;;;20.33;12.05;;;;;;;17.45;100.00;100446.97;10456993;28;20041;-77
2022/06/23 22:31:51;;;;;;;20.05;11.98;;;;;;;17.39;100.00;100448.66;10441675;28;20036;-77
2022/06/23 22:36:52;;;;;;;17.02;11.23;;;;;;;17.36;100.00;100459.19;10495744;28;20067;-78
2022/06/23 22:41:52;;;;;;;17.25;9.48;;;;;;;17.27;100.00;100458.19;10489444;28;20033;-78
2022/06/23 22:47:21;;;;;;;14.48;8.77;;;;;;;17.09;100.00;100474.72;10489535;28;20036;-78
2022/06/23 22:52:23;;;;;;;20.15;12.32;;;;;;;17.10;100.00;100459.72;10509240;28;20044;-77
2022/06/23 22:57:32;;;;;;;16.55;10.02;;;;;;;17.12;100.00;100468.56;10490127;28;20466;-77
2022/06/23 23:02:34;;;;;;;12.80;9.63;;;;;;;17.04;100.00;100452.59;10496763;28;20040;-78
2022/06/23 23:07:39;;;;;;;18.65;12.20;;;;;;;17.00;100.00;100434.91;10530717;28;20043;-78
2022/06/23 23:12:50;;;;;;;14.10;11.45;;;;;;;16.98;100.00;100434.00;10485578;28;20041;-79
2022/06/23 23:17:57;;;;;;;13.63;10.38;;;;;;;16.99;100.00;100423.44;10486419;28;20051;-79
2022/06/23 23:22:58;;;;;;;23.65;13.85;;;;;;;17.04;100.00;100410.31;10519768;28;20040;-79
2022/06/23 23:28:19;;;;;;;21.83;13.73;;;;;;;17.13;100.00;100421.00;10487377;28;20503;-79
2022/06/23 23:33:26;;;;;;;21.80;15.45;;;;;;;17.15;100.00;100406.03;10438014;28;20040;-78
2022/06/23 23:38:38;;;;;;;21.98;16.63;;;;;;;17.29;100.00;100429.13;10480215;28;20043;-78
2022/06/23 23:43:39;;;;;;;22.13;15.38;;;;;;;17.32;100.00;100467.06;10455130;28;20070;-80
2022/06/23 23:48:39;;;;;;;22.67;16.73;;;;;;;17.41;100.00;100536.84;10434700;28;20085;-80
2022/06/23 23:53:40;;;;;;;23.73;15.95;;;;;;;17.69;100.00;100526.63;10477300;28;20049;-80
2022/06/23 23:58:44;;;;;;;19.45;14.68;;;;;;;17.95;100.00;100610.78;10465743;28;20044;-79
